Cincinnati, OH

7:47 PM EST en Noviembre 22, 2014 (GMT -0500)
Newport Aquarium | Change Station
CLOSE
Current Station
Estación meteorológica personal
Location: Newport, KY
Altura: 499 ft
Estaciones meteorológicas cercanas

Alt 499 ft 39.09 °N, 84.50 °W | Updated 3 minutes ago

Nublado
Nublado
55.1 ° F
Sensación térmica 55.1 ° F
N
0.0
Viento Variable Viento desde ESE
Gusts 21.0 mph

Hoy
Alta -- | Baja -- ° F
--% Posibilidad de precipitaciones
Ayer
Alta -- | Baja -- ° F
Precip. -- pul
7:28 AM 5:19 PM
Luna nueva, 0% visible
Presión 30.10 pul
Visibilidad 10.0 Millas
Nubes Baja 7000 ft
Nublado 9000 ft
Punto de rocío 34 ° F
Humedad 45%
Precipitaciones 0.03 pul
Espesor de la nieve No disponible.
UV 0 de una escala de 12
Polen .10 de una escala de 12
Calidad del aire No disponible.
Flu Activity No disponible.
METAR KLUK 222353Z 21006KT 10SM FEW070 OVC090 12/02 A3010 RMK AO2 SLP193 60000 T01170022 10161 20111 56011

More Conditions Fewer Conditions

Presión 30.10 pul
Visibilidad 10.0 Millas
Nubes Baja 7000 ft
Nublado 9000 ft
Punto de rocío 34 ° F
Humedad 45%
Precipitaciones 0.03 pul
Espesor de la nieve No disponible.
UV 0 de una escala de 12
Polen .10 de una escala de 12
Calidad del aire No disponible.
Flu Activity No disponible.
METAR KLUK 222353Z 21006KT 10SM FEW070 OVC090 12/02 A3010 RMK AO2 SLP193 60000 T01170022 10161 20111 56011

More Conditions Fewer Conditions

10-Day Weather Forecast

Almanac

Astronomía

Nov. 22, 2014 Salida Puesta
Hora real
Crepúsculo civil
Crepúsculo náutico
Crepúsculo astronómico
Luna
Horas de luz
Horas de luz
Tomorrow will be .
, % of the Moon is Illuminated

Extremos de hoy

Máximos del estado Bajos del estado

Community

WunderPhotos

Upload Photos

1,772,938 ¡fotos cargadas!

WunderBlogs® & News

Nearby

Calidad del aire

  Calidad del aire Índice AQ Contaminante
Not available.

Grosos de nieve

Estación Profundido Altura

Actividad de terremotos

Ciudad Distance Mag. Tiempo y dato
Magnitud mínima muestra es 2,5.

Temperaturas de aguas costeras

Lugar Temperatura

Estaciones meteorológicas cercanas